sensor_id;sensor_type;location;lat;lon;timestamp;P1;durP1;ratioP1;P2;durP2;ratioP2
59474;SDS011;45288;51.136;16.928;2022-09-03T00:00:03;3.28;;;2.30;;
59474;SDS011;45288;51.136;16.928;2022-09-03T00:02:37;2.92;;;2.00;;
59474;SDS011;45288;51.136;16.928;2022-09-03T00:07:38;4.35;;;2.20;;
59474;SDS011;45288;51.136;16.928;2022-09-03T00:10:09;3.20;;;2.27;;
59474;SDS011;45288;51.136;16.928;2022-09-03T00:12:37;3.47;;;2.50;;
59474;SDS011;45288;51.136;16.928;2022-09-03T00:17:52;3.50;;;2.40;;
59474;SDS011;45288;51.136;16.928;2022-09-03T00:20:18;4.35;;;2.33;;
59474;SDS011;45288;51.136;16.928;2022-09-03T00:22:44;4.65;;;2.63;;
59474;SDS011;45288;51.136;16.928;2022-09-03T00:25:12;4.93;;;2.70;;
59474;SDS011;45288;51.136;16.928;2022-09-03T00:27:39;4.88;;;2.70;;
59474;SDS011;45288;51.136;16.928;2022-09-03T00:30:09;4.95;;;2.30;;
59474;SDS011;45288;51.136;16.928;2022-09-03T00:35:02;6.30;;;2.70;;
59474;SDS011;45288;51.136;16.928;2022-09-03T00:37:29;5.13;;;2.53;;
59474;SDS011;45288;51.136;16.928;2022-09-03T00:39:55;4.13;;;2.40;;
59474;SDS011;45288;51.136;16.928;2022-09-03T00:52:59;4.13;;;2.50;;
59474;SDS011;45288;51.136;16.928;2022-09-03T00:58:23;3.80;;;2.20;;
59474;SDS011;45288;51.136;16.928;2022-09-03T01:00:51;6.72;;;2.63;;
59474;SDS011;45288;51.136;16.928;2022-09-03T01:06:23;4.00;;;2.15;;
59474;SDS011;45288;51.136;16.928;2022-09-03T01:09:06;3.50;;;2.42;;
59474;SDS011;45288;51.136;16.928;2022-09-03T01:14:55;5.25;;;2.92;;
59474;SDS011;45288;51.136;16.928;2022-09-03T01:22:13;3.75;;;2.40;;
59474;SDS011;45288;51.136;16.928;2022-09-03T01:32:32;5.38;;;2.80;;
59474;SDS011;45288;51.136;16.928;2022-09-03T01:35:26;4.65;;;2.20;;
59474;SDS011;45288;51.136;16.928;2022-09-03T01:45:55;4.97;;;2.88;;
59474;SDS011;45288;51.136;16.928;2022-09-03T01:50:57;4.70;;;2.95;;
59474;SDS011;45288;51.136;16.928;2022-09-03T01:59:14;3.90;;;2.72;;
59474;SDS011;45288;51.136;16.928;2022-09-03T02:01:44;5.88;;;2.85;;
59474;SDS011;45288;51.136;16.928;2022-09-03T02:04:18;4.93;;;2.80;;
59474;SDS011;45288;51.136;16.928;2022-09-03T02:06:45;5.22;;;2.97;;
59474;SDS011;45288;51.136;16.928;2022-09-03T02:09:12;4.38;;;2.70;;
59474;SDS011;45288;51.136;16.928;2022-09-03T02:11:38;4.20;;;2.60;;
59474;SDS011;45288;51.136;16.928;2022-09-03T02:14:04;5.45;;;2.80;;
59474;SDS011;45288;51.136;16.928;2022-09-03T02:16:30;3.88;;;2.78;;
59474;SDS011;45288;51.136;16.928;2022-09-03T02:18:58;5.47;;;2.90;;
59474;SDS011;45288;51.136;16.928;2022-09-03T02:21:26;4.57;;;2.88;;
59474;SDS011;45288;51.136;16.928;2022-09-03T02:23:52;4.80;;;2.97;;
59474;SDS011;45288;51.136;16.928;2022-09-03T02:26:20;4.45;;;2.90;;
59474;SDS011;45288;51.136;16.928;2022-09-03T02:28:47;4.20;;;2.70;;
59474;SDS011;45288;51.136;16.928;2022-09-03T02:31:12;4.57;;;2.75;;
59474;SDS011;45288;51.136;16.928;2022-09-03T02:33:39;4.63;;;2.67;;
59474;SDS011;45288;51.136;16.928;2022-09-03T02:36:06;4.60;;;3.00;;
59474;SDS011;45288;51.136;16.928;2022-09-03T02:38:33;5.30;;;2.70;;
59474;SDS011;45288;51.136;16.928;2022-09-03T02:40:58;6.53;;;2.87;;
59474;SDS011;45288;51.136;16.928;2022-09-03T02:43:30;4.60;;;2.70;;
59474;SDS011;45288;51.136;16.928;2022-09-03T02:45:58;5.68;;;2.70;;
59474;SDS011;45288;51.136;16.928;2022-09-03T02:48:25;4.60;;;2.70;;
59474;SDS011;45288;51.136;16.928;2022-09-03T02:50:52;5.88;;;2.85;;
59474;SDS011;45288;51.136;16.928;2022-09-03T02:53:18;3.40;;;2.80;;
59474;SDS011;45288;51.136;16.928;2022-09-03T02:55:43;5.68;;;2.85;;
59474;SDS011;45288;51.136;16.928;2022-09-03T02:58:09;4.77;;;2.90;;
59474;SDS011;45288;51.136;16.928;2022-09-03T03:00:35;5.53;;;2.92;;
59474;SDS011;45288;51.136;16.928;2022-09-03T03:03:01;4.57;;;2.95;;
59474;SDS011;45288;51.136;16.928;2022-09-03T03:05:29;5.05;;;2.80;;
59474;SDS011;45288;51.136;16.928;2022-09-03T03:07:57;6.18;;;2.88;;
59474;SDS011;45288;51.136;16.928;2022-09-03T03:10:23;4.23;;;2.70;;
59474;SDS011;45288;51.136;16.928;2022-09-03T03:12:49;5.60;;;2.90;;
59474;SDS011;45288;51.136;16.928;2022-09-03T03:15:15;4.55;;;2.90;;
59474;SDS011;45288;51.136;16.928;2022-09-03T03:17:41;4.45;;;2.80;;
59474;SDS011;45288;51.136;16.928;2022-09-03T03:20:06;5.05;;;2.83;;
59474;SDS011;45288;51.136;16.928;2022-09-03T03:22:32;5.28;;;2.85;;
59474;SDS011;45288;51.136;16.928;2022-09-03T03:24:59;5.70;;;2.90;;
59474;SDS011;45288;51.136;16.928;2022-09-03T03:27:25;4.07;;;2.90;;
59474;SDS011;45288;51.136;16.928;2022-09-03T03:29:52;4.45;;;2.88;;
59474;SDS011;45288;51.136;16.928;2022-09-03T03:32:19;5.17;;;3.17;;
59474;SDS011;45288;51.136;16.928;2022-09-03T03:34:44;4.40;;;2.70;;
59474;SDS011;45288;51.136;16.928;2022-09-03T03:37:10;4.80;;;2.87;;
59474;SDS011;45288;51.136;16.928;2022-09-03T03:39:36;4.18;;;3.03;;
59474;SDS011;45288;51.136;16.928;2022-09-03T03:42:02;6.80;;;2.92;;
59474;SDS011;45288;51.136;16.928;2022-09-03T03:44:27;4.87;;;3.20;;
59474;SDS011;45288;51.136;16.928;2022-09-03T03:46:54;6.13;;;2.88;;
59474;SDS011;45288;51.136;16.928;2022-09-03T03:49:19;6.77;;;3.20;;
59474;SDS011;45288;51.136;16.928;2022-09-03T03:51:45;4.47;;;2.80;;
59474;SDS011;45288;51.136;16.928;2022-09-03T03:54:10;6.17;;;3.60;;
59474;SDS011;45288;51.136;16.928;2022-09-03T03:56:36;4.95;;;3.10;;
59474;SDS011;45288;51.136;16.928;2022-09-03T03:59:02;6.70;;;2.92;;
59474;SDS011;45288;51.136;16.928;2022-09-03T04:01:28;4.70;;;3.30;;
59474;SDS011;45288;51.136;16.928;2022-09-03T04:03:54;4.27;;;3.00;;
59474;SDS011;45288;51.136;16.928;2022-09-03T04:06:20;4.75;;;3.30;;
59474;SDS011;45288;51.136;16.928;2022-09-03T04:08:47;5.50;;;3.40;;
59474;SDS011;45288;51.136;16.928;2022-09-03T04:11:14;5.75;;;2.90;;
59474;SDS011;45288;51.136;16.928;2022-09-03T04:13:41;4.75;;;2.85;;
59474;SDS011;45288;51.136;16.928;2022-09-03T04:16:08;6.47;;;3.28;;
59474;SDS011;45288;51.136;16.928;2022-09-03T04:18:34;4.88;;;3.00;;
59474;SDS011;45288;51.136;16.928;2022-09-03T04:21:00;4.97;;;3.30;;
59474;SDS011;45288;51.136;16.928;2022-09-03T04:23:35;5.85;;;3.05;;
59474;SDS011;45288;51.136;16.928;2022-09-03T04:26:01;5.13;;;2.78;;
59474;SDS011;45288;51.136;16.928;2022-09-03T04:28:26;4.83;;;3.00;;
59474;SDS011;45288;51.136;16.928;2022-09-03T04:30:52;4.53;;;2.65;;
59474;SDS011;45288;51.136;16.928;2022-09-03T04:33:18;5.72;;;3.00;;
59474;SDS011;45288;51.136;16.928;2022-09-03T04:35:44;4.72;;;3.00;;
59474;SDS011;45288;51.136;16.928;2022-09-03T04:38:10;7.80;;;3.43;;
59474;SDS011;45288;51.136;16.928;2022-09-03T04:40:36;5.15;;;3.00;;
59474;SDS011;45288;51.136;16.928;2022-09-03T04:43:02;4.23;;;2.90;;
59474;SDS011;45288;51.136;16.928;2022-09-03T04:45:27;17.85;;;3.97;;
59474;SDS011;45288;51.136;16.928;2022-09-03T04:47:57;5.32;;;3.17;;
59474;SDS011;45288;51.136;16.928;2022-09-03T04:50:23;5.88;;;3.38;;
59474;SDS011;45288;51.136;16.928;2022-09-03T04:53:01;5.32;;;3.20;;
59474;SDS011;45288;51.136;16.928;2022-09-03T04:55:27;5.95;;;3.22;;
59474;SDS011;45288;51.136;16.928;2022-09-03T04:57:53;6.68;;;3.22;;
59474;SDS011;45288;51.136;16.928;2022-09-03T05:00:20;5.32;;;3.20;;
59474;SDS011;45288;51.136;16.928;2022-09-03T05:02:46;6.53;;;3.55;;
59474;SDS011;45288;51.136;16.928;2022-09-03T05:05:13;6.78;;;3.38;;
59474;SDS011;45288;51.136;16.928;2022-09-03T05:07:38;5.30;;;2.97;;
59474;SDS011;45288;51.136;16.928;2022-09-03T05:10:05;5.28;;;3.10;;
59474;SDS011;45288;51.136;16.928;2022-09-03T05:12:31;5.22;;;3.03;;
59474;SDS011;45288;51.136;16.928;2022-09-03T05:14:57;5.75;;;3.00;;
59474;SDS011;45288;51.136;16.928;2022-09-03T05:17:24;5.45;;;3.00;;
59474;SDS011;45288;51.136;16.928;2022-09-03T05:19:50;9.10;;;3.45;;
59474;SDS011;45288;51.136;16.928;2022-09-03T05:22:16;9.52;;;3.45;;
59474;SDS011;45288;51.136;16.928;2022-09-03T05:24:46;8.50;;;3.30;;
59474;SDS011;45288;51.136;16.928;2022-09-03T05:27:11;5.67;;;3.30;;
59474;SDS011;45288;51.136;16.928;2022-09-03T05:29:37;9.15;;;3.58;;
59474;SDS011;45288;51.136;16.928;2022-09-03T05:32:03;6.27;;;3.03;;
59474;SDS011;45288;51.136;16.928;2022-09-03T05:34:28;6.32;;;2.92;;
59474;SDS011;45288;51.136;16.928;2022-09-03T05:36:54;9.00;;;3.23;;
59474;SDS011;45288;51.136;16.928;2022-09-03T05:39:21;7.32;;;3.33;;
59474;SDS011;45288;51.136;16.928;2022-09-03T05:41:46;5.37;;;3.00;;
59474;SDS011;45288;51.136;16.928;2022-09-03T05:44:15;5.38;;;2.95;;
59474;SDS011;45288;51.136;16.928;2022-09-03T05:46:40;4.28;;;3.17;;
59474;SDS011;45288;51.136;16.928;2022-09-03T05:49:06;7.30;;;2.93;;
59474;SDS011;45288;51.136;16.928;2022-09-03T05:51:34;5.35;;;3.08;;
59474;SDS011;45288;51.136;16.928;2022-09-03T05:53:59;5.60;;;2.97;;
59474;SDS011;45288;51.136;16.928;2022-09-03T05:56:27;4.97;;;2.80;;
59474;SDS011;45288;51.136;16.928;2022-09-03T05:58:55;6.13;;;3.28;;
59474;SDS011;45288;51.136;16.928;2022-09-03T06:01:31;5.50;;;3.00;;
59474;SDS011;45288;51.136;16.928;2022-09-03T06:04:07;4.45;;;2.90;;
59474;SDS011;45288;51.136;16.928;2022-09-03T06:06:34;7.33;;;3.03;;
59474;SDS011;45288;51.136;16.928;2022-09-03T06:09:01;4.85;;;2.67;;
59474;SDS011;45288;51.136;16.928;2022-09-03T06:11:27;7.13;;;2.65;;
59474;SDS011;45288;51.136;16.928;2022-09-03T06:13:54;4.15;;;2.72;;
59474;SDS011;45288;51.136;16.928;2022-09-03T06:16:21;5.32;;;2.85;;
59474;SDS011;45288;51.136;16.928;2022-09-03T06:18:47;5.75;;;2.67;;
59474;SDS011;45288;51.136;16.928;2022-09-03T06:21:15;6.45;;;2.80;;
59474;SDS011;45288;51.136;16.928;2022-09-03T06:23:41;4.07;;;2.73;;
59474;SDS011;45288;51.136;16.928;2022-09-03T06:26:08;4.80;;;2.97;;
59474;SDS011;45288;51.136;16.928;2022-09-03T06:28:34;6.13;;;2.90;;
59474;SDS011;45288;51.136;16.928;2022-09-03T06:31:01;4.35;;;2.70;;
59474;SDS011;45288;51.136;16.928;2022-09-03T06:33:31;7.00;;;3.00;;
59474;SDS011;45288;51.136;16.928;2022-09-03T06:36:00;6.43;;;3.00;;
59474;SDS011;45288;51.136;16.928;2022-09-03T06:38:26;6.47;;;2.70;;
59474;SDS011;45288;51.136;16.928;2022-09-03T06:40:56;5.78;;;2.78;;
59474;SDS011;45288;51.136;16.928;2022-09-03T06:43:23;5.18;;;2.97;;
59474;SDS011;45288;51.136;16.928;2022-09-03T06:45:56;6.90;;;2.90;;
59474;SDS011;45288;51.136;16.928;2022-09-03T06:48:22;4.60;;;2.70;;
59474;SDS011;45288;51.136;16.928;2022-09-03T06:50:59;4.50;;;2.90;;
59474;SDS011;45288;51.136;16.928;2022-09-03T06:53:29;5.25;;;2.80;;
59474;SDS011;45288;51.136;16.928;2022-09-03T06:55:56;4.90;;;2.80;;
59474;SDS011;45288;51.136;16.928;2022-09-03T06:58:22;6.40;;;2.88;;
59474;SDS011;45288;51.136;16.928;2022-09-03T07:00:48;6.22;;;2.70;;
59474;SDS011;45288;51.136;16.928;2022-09-03T07:03:14;5.03;;;2.95;;
59474;SDS011;45288;51.136;16.928;2022-09-03T07:05:42;5.47;;;2.85;;
59474;SDS011;45288;51.136;16.928;2022-09-03T07:08:08;4.28;;;2.95;;
59474;SDS011;45288;51.136;16.928;2022-09-03T07:10:38;4.97;;;2.75;;
59474;SDS011;45288;51.136;16.928;2022-09-03T07:13:04;5.15;;;3.05;;
59474;SDS011;45288;51.136;16.928;2022-09-03T07:15:32;6.60;;;3.00;;
59474;SDS011;45288;51.136;16.928;2022-09-03T07:17:58;4.57;;;2.85;;
59474;SDS011;45288;51.136;16.928;2022-09-03T07:20:24;4.18;;;2.70;;
59474;SDS011;45288;51.136;16.928;2022-09-03T07:22:49;4.47;;;2.83;;
59474;SDS011;45288;51.136;16.928;2022-09-03T07:25:18;4.72;;;3.10;;
59474;SDS011;45288;51.136;16.928;2022-09-03T07:27:44;9.02;;;3.22;;
59474;SDS011;45288;51.136;16.928;2022-09-03T07:30:09;6.78;;;3.42;;
59474;SDS011;45288;51.136;16.928;2022-09-03T07:32:35;7.88;;;3.30;;
59474;SDS011;45288;51.136;16.928;2022-09-03T07:35:05;8.20;;;3.30;;
59474;SDS011;45288;51.136;16.928;2022-09-03T07:37:31;6.90;;;3.70;;
59474;SDS011;45288;51.136;16.928;2022-09-03T07:39:58;8.27;;;3.87;;
59474;SDS011;45288;51.136;16.928;2022-09-03T07:42:24;5.35;;;3.30;;
59474;SDS011;45288;51.136;16.928;2022-09-03T07:44:51;7.13;;;3.30;;
59474;SDS011;45288;51.136;16.928;2022-09-03T07:47:17;7.13;;;3.50;;
59474;SDS011;45288;51.136;16.928;2022-09-03T07:49:44;5.60;;;3.22;;
59474;SDS011;45288;51.136;16.928;2022-09-03T07:52:10;5.67;;;3.50;;
59474;SDS011;45288;51.136;16.928;2022-09-03T07:54:35;7.93;;;3.53;;
59474;SDS011;45288;51.136;16.928;2022-09-03T07:57:01;5.18;;;3.17;;
59474;SDS011;45288;51.136;16.928;2022-09-03T07:59:27;5.72;;;3.53;;
59474;SDS011;45288;51.136;16.928;2022-09-03T08:01:53;6.13;;;3.47;;
59474;SDS011;45288;51.136;16.928;2022-09-03T08:04:18;5.18;;;3.28;;
59474;SDS011;45288;51.136;16.928;2022-09-03T08:06:46;8.00;;;3.72;;
59474;SDS011;45288;51.136;16.928;2022-09-03T08:09:12;7.28;;;4.00;;
59474;SDS011;45288;51.136;16.928;2022-09-03T08:11:39;6.80;;;3.53;;
59474;SDS011;45288;51.136;16.928;2022-09-03T08:14:06;7.82;;;3.88;;
59474;SDS011;45288;51.136;16.928;2022-09-03T08:16:33;6.53;;;3.50;;
59474;SDS011;45288;51.136;16.928;2022-09-03T08:18:59;7.75;;;4.18;;
59474;SDS011;45288;51.136;16.928;2022-09-03T08:21:25;5.75;;;3.40;;
59474;SDS011;45288;51.136;16.928;2022-09-03T08:23:52;5.82;;;3.65;;
59474;SDS011;45288;51.136;16.928;2022-09-03T08:26:19;6.78;;;3.88;;
59474;SDS011;45288;51.136;16.928;2022-09-03T08:28:46;5.97;;;3.85;;
59474;SDS011;45288;51.136;16.928;2022-09-03T08:31:13;5.93;;;3.90;;
59474;SDS011;45288;51.136;16.928;2022-09-03T08:33:39;5.75;;;4.05;;
59474;SDS011;45288;51.136;16.928;2022-09-03T08:36:29;8.00;;;4.00;;
59474;SDS011;45288;51.136;16.928;2022-09-03T08:38:54;6.35;;;3.50;;
59474;SDS011;45288;51.136;16.928;2022-09-03T08:49:32;6.45;;;3.97;;
59474;SDS011;45288;51.136;16.928;2022-09-03T08:52:00;8.57;;;4.13;;
59474;SDS011;45288;51.136;16.928;2022-09-03T08:54:28;6.05;;;3.60;;
59474;SDS011;45288;51.136;16.928;2022-09-03T08:56:55;6.55;;;3.78;;
59474;SDS011;45288;51.136;16.928;2022-09-03T08:59:23;7.22;;;3.75;;
59474;SDS011;45288;51.136;16.928;2022-09-03T09:01:56;9.83;;;4.30;;
59474;SDS011;45288;51.136;16.928;2022-09-03T09:04:47;6.88;;;3.83;;
59474;SDS011;45288;51.136;16.928;2022-09-03T09:07:20;7.80;;;3.78;;
59474;SDS011;45288;51.136;16.928;2022-09-03T09:15:03;7.23;;;3.97;;
59474;SDS011;45288;51.136;16.928;2022-09-03T09:22:29;8.27;;;3.87;;
59474;SDS011;45288;51.136;16.928;2022-09-03T09:24:57;5.38;;;3.53;;
59474;SDS011;45288;51.136;16.928;2022-09-03T09:27:23;6.90;;;3.70;;
59474;SDS011;45288;51.136;16.928;2022-09-03T09:29:49;6.07;;;3.92;;
59474;SDS011;45288;51.136;16.928;2022-09-03T09:32:16;6.93;;;3.75;;
59474;SDS011;45288;51.136;16.928;2022-09-03T09:34:43;6.25;;;3.45;;
59474;SDS011;45288;51.136;16.928;2022-09-03T09:37:11;6.17;;;3.43;;
59474;SDS011;45288;51.136;16.928;2022-09-03T09:39:37;5.75;;;3.58;;
59474;SDS011;45288;51.136;16.928;2022-09-03T09:42:05;8.55;;;4.38;;
59474;SDS011;45288;51.136;16.928;2022-09-03T09:44:34;6.22;;;3.67;;
59474;SDS011;45288;51.136;16.928;2022-09-03T09:47:07;5.70;;;3.58;;
59474;SDS011;45288;51.136;16.928;2022-09-03T09:49:37;6.17;;;3.70;;
59474;SDS011;45288;51.136;16.928;2022-09-03T09:52:09;6.80;;;3.67;;
59474;SDS011;45288;51.136;16.928;2022-09-03T09:54:36;6.80;;;3.80;;
59474;SDS011;45288;51.136;16.928;2022-09-03T09:57:03;9.13;;;4.70;;
59474;SDS011;45288;51.136;16.928;2022-09-03T09:59:30;7.45;;;4.20;;
59474;SDS011;45288;51.136;16.928;2022-09-03T10:02:16;9.90;;;3.60;;
59474;SDS011;45288;51.136;16.928;2022-09-03T10:04:44;6.03;;;3.17;;
59474;SDS011;45288;51.136;16.928;2022-09-03T10:07:20;5.68;;;3.22;;
59474;SDS011;45288;51.136;16.928;2022-09-03T10:09:56;5.93;;;3.00;;
59474;SDS011;45288;51.136;16.928;2022-09-03T10:12:41;5.65;;;3.30;;
59474;SDS011;45288;51.136;16.928;2022-09-03T10:17:56;6.53;;;3.40;;
59474;SDS011;45288;51.136;16.928;2022-09-03T10:20:33;5.77;;;3.47;;
59474;SDS011;45288;51.136;16.928;2022-09-03T10:25:37;5.03;;;3.28;;
59474;SDS011;45288;51.136;16.928;2022-09-03T10:28:09;5.50;;;3.30;;
59474;SDS011;45288;51.136;16.928;2022-09-03T10:30:41;5.45;;;3.38;;
59474;SDS011;45288;51.136;16.928;2022-09-03T10:33:21;4.50;;;3.10;;
59474;SDS011;45288;51.136;16.928;2022-09-03T10:35:52;4.68;;;3.22;;
59474;SDS011;45288;51.136;16.928;2022-09-03T10:38:28;7.03;;;3.17;;
59474;SDS011;45288;51.136;16.928;2022-09-03T10:43:41;4.53;;;3.00;;
59474;SDS011;45288;51.136;16.928;2022-09-03T10:46:19;4.50;;;2.93;;
59474;SDS011;45288;51.136;16.928;2022-09-03T10:51:19;6.53;;;3.20;;
59474;SDS011;45288;51.136;16.928;2022-09-03T10:53:52;3.90;;;3.00;;
59474;SDS011;45288;51.136;16.928;2022-09-03T10:56:44;6.63;;;3.30;;
59474;SDS011;45288;51.136;16.928;2022-09-03T11:06:39;5.05;;;3.25;;
59474;SDS011;45288;51.136;16.928;2022-09-03T11:09:17;6.50;;;3.30;;
59474;SDS011;45288;51.136;16.928;2022-09-03T11:11:46;5.70;;;3.33;;
59474;SDS011;45288;51.136;16.928;2022-09-03T11:14:14;5.00;;;3.08;;
59474;SDS011;45288;51.136;16.928;2022-09-03T11:16:42;6.15;;;3.42;;
59474;SDS011;45288;51.136;16.928;2022-09-03T11:19:10;4.32;;;3.08;;
59474;SDS011;45288;51.136;16.928;2022-09-03T11:21:37;6.60;;;3.20;;
59474;SDS011;45288;51.136;16.928;2022-09-03T11:26:33;5.38;;;3.40;;
59474;SDS011;45288;51.136;16.928;2022-09-03T11:29:10;4.95;;;3.20;;
59474;SDS011;45288;51.136;16.928;2022-09-03T11:34:49;5.53;;;3.10;;
59474;SDS011;45288;51.136;16.928;2022-09-03T11:37:22;5.07;;;3.10;;
59474;SDS011;45288;51.136;16.928;2022-09-03T11:40:27;5.37;;;3.03;;
59474;SDS011;45288;51.136;16.928;2022-09-03T11:42:45;5.20;;;3.17;;
59474;SDS011;45288;51.136;16.928;2022-09-03T11:47:43;7.05;;;3.38;;
59474;SDS011;45288;51.136;16.928;2022-09-03T11:50:16;6.00;;;3.30;;
59474;SDS011;45288;51.136;16.928;2022-09-03T11:52:46;4.53;;;3.00;;
59474;SDS011;45288;51.136;16.928;2022-09-03T11:55:23;5.65;;;3.20;;
59474;SDS011;45288;51.136;16.928;2022-09-03T11:57:48;4.88;;;3.33;;
59474;SDS011;45288;51.136;16.928;2022-09-03T12:00:15;6.10;;;3.50;;
59474;SDS011;45288;51.136;16.928;2022-09-03T12:02:47;4.90;;;3.30;;
59474;SDS011;45288;51.136;16.928;2022-09-03T12:07:59;6.15;;;3.50;;
59474;SDS011;45288;51.136;16.928;2022-09-03T12:10:49;4.80;;;3.00;;
59474;SDS011;45288;51.136;16.928;2022-09-03T12:18:34;7.33;;;3.53;;
59474;SDS011;45288;51.136;16.928;2022-09-03T12:21:02;6.43;;;3.50;;
59474;SDS011;45288;51.136;16.928;2022-09-03T12:23:39;5.40;;;3.30;;
59474;SDS011;45288;51.136;16.928;2022-09-03T12:26:13;5.53;;;3.15;;
59474;SDS011;45288;51.136;16.928;2022-09-03T12:28:39;6.68;;;3.20;;
59474;SDS011;45288;51.136;16.928;2022-09-03T12:31:07;5.13;;;3.15;;
59474;SDS011;45288;51.136;16.928;2022-09-03T12:33:52;4.68;;;3.33;;
59474;SDS011;45288;51.136;16.928;2022-09-03T12:36:19;5.57;;;3.30;;
59474;SDS011;45288;51.136;16.928;2022-09-03T12:38:45;6.68;;;3.60;;
59474;SDS011;45288;51.136;16.928;2022-09-03T12:41:25;5.45;;;3.40;;
59474;SDS011;45288;51.136;16.928;2022-09-03T12:43:53;6.05;;;3.33;;
59474;SDS011;45288;51.136;16.928;2022-09-03T12:46:21;5.55;;;3.28;;
59474;SDS011;45288;51.136;16.928;2022-09-03T12:48:57;7.80;;;3.53;;
59474;SDS011;45288;51.136;16.928;2022-09-03T12:51:36;5.20;;;3.43;;
59474;SDS011;45288;51.136;16.928;2022-09-03T12:54:02;5.93;;;3.25;;
59474;SDS011;45288;51.136;16.928;2022-09-03T12:56:29;7.10;;;3.50;;
59474;SDS011;45288;51.136;16.928;2022-09-03T12:58:58;5.40;;;3.00;;
59474;SDS011;45288;51.136;16.928;2022-09-03T13:01:30;7.88;;;3.58;;
59474;SDS011;45288;51.136;16.928;2022-09-03T13:04:11;5.63;;;3.30;;
59474;SDS011;45288;51.136;16.928;2022-09-03T13:06:44;6.30;;;3.10;;
59474;SDS011;45288;51.136;16.928;2022-09-03T13:09:14;6.38;;;3.63;;
59474;SDS011;45288;51.136;16.928;2022-09-03T13:11:41;6.65;;;3.33;;
59474;SDS011;45288;51.136;16.928;2022-09-03T13:14:10;6.40;;;2.95;;
59474;SDS011;45288;51.136;16.928;2022-09-03T13:31:54;5.87;;;3.10;;
59474;SDS011;45288;51.136;16.928;2022-09-03T13:34:39;6.22;;;3.08;;
59474;SDS011;45288;51.136;16.928;2022-09-03T13:37:26;5.07;;;3.00;;
59474;SDS011;45288;51.136;16.928;2022-09-03T13:39:57;4.38;;;3.03;;
59474;SDS011;45288;51.136;16.928;2022-09-03T13:42:37;5.63;;;3.22;;
59474;SDS011;45288;51.136;16.928;2022-09-03T13:47:33;6.63;;;3.40;;
59474;SDS011;45288;51.136;16.928;2022-09-03T13:50:18;5.38;;;3.30;;
59474;SDS011;45288;51.136;16.928;2022-09-03T13:53:01;5.20;;;3.13;;
59474;SDS011;45288;51.136;16.928;2022-09-03T13:55:48;7.32;;;3.35;;
59474;SDS011;45288;51.136;16.928;2022-09-03T13:58:20;6.80;;;3.40;;
59474;SDS011;45288;51.136;16.928;2022-09-03T14:03:26;5.20;;;3.30;;
59474;SDS011;45288;51.136;16.928;2022-09-03T14:06:04;6.22;;;3.47;;
59474;SDS011;45288;51.136;16.928;2022-09-03T14:13:27;6.03;;;3.10;;
59474;SDS011;45288;51.136;16.928;2022-09-03T14:16:09;5.80;;;3.60;;
59474;SDS011;45288;51.136;16.928;2022-09-03T14:18:45;7.13;;;3.53;;
59474;SDS011;45288;51.136;16.928;2022-09-03T14:22:16;5.10;;;3.13;;
59474;SDS011;45288;51.136;16.928;2022-09-03T14:24:14;4.78;;;3.42;;
59474;SDS011;45288;51.136;16.928;2022-09-03T14:26:55;4.78;;;3.33;;
59474;SDS011;45288;51.136;16.928;2022-09-03T14:29:30;7.53;;;3.50;;
59474;SDS011;45288;51.136;16.928;2022-09-03T14:39:32;5.45;;;3.38;;
59474;SDS011;45288;51.136;16.928;2022-09-03T14:47:06;6.88;;;4.00;;
59474;SDS011;45288;51.136;16.928;2022-09-03T14:49:44;6.00;;;4.20;;
59474;SDS011;45288;51.136;16.928;2022-09-03T14:57:26;4.82;;;3.58;;
59474;SDS011;45288;51.136;16.928;2022-09-03T15:02:52;6.50;;;3.80;;
59474;SDS011;45288;51.136;16.928;2022-09-03T15:13:16;8.52;;;3.97;;
59474;SDS011;45288;51.136;16.928;2022-09-03T15:20:51;5.68;;;3.92;;
59474;SDS011;45288;51.136;16.928;2022-09-03T15:23:36;6.53;;;3.88;;
59474;SDS011;45288;51.136;16.928;2022-09-03T15:31:26;4.65;;;3.65;;
59474;SDS011;45288;51.136;16.928;2022-09-03T15:34:10;5.15;;;3.70;;
59474;SDS011;45288;51.136;16.928;2022-09-03T15:36:44;5.10;;;3.33;;
59474;SDS011;45288;51.136;16.928;2022-09-03T15:41:46;6.77;;;3.73;;
59474;SDS011;45288;51.136;16.928;2022-09-03T15:44:15;6.00;;;3.80;;
59474;SDS011;45288;51.136;16.928;2022-09-03T15:46:58;5.50;;;3.53;;
59474;SDS011;45288;51.136;16.928;2022-09-03T15:49:31;6.30;;;3.90;;
59474;SDS011;45288;51.136;16.928;2022-09-03T15:52:25;5.38;;;3.60;;
59474;SDS011;45288;51.136;16.928;2022-09-03T15:55:04;6.10;;;3.50;;
59474;SDS011;45288;51.136;16.928;2022-09-03T16:00:18;5.25;;;3.88;;
59474;SDS011;45288;51.136;16.928;2022-09-03T16:02:46;5.43;;;3.77;;
59474;SDS011;45288;51.136;16.928;2022-09-03T16:05:20;5.25;;;3.65;;
59474;SDS011;45288;51.136;16.928;2022-09-03T16:08:09;5.90;;;3.60;;
59474;SDS011;45288;51.136;16.928;2022-09-03T16:10:45;4.60;;;3.40;;
59474;SDS011;45288;51.136;16.928;2022-09-03T16:15:48;5.63;;;3.97;;
59474;SDS011;45288;51.136;16.928;2022-09-03T16:20:42;5.30;;;3.80;;
59474;SDS011;45288;51.136;16.928;2022-09-03T16:26:00;5.03;;;3.67;;
59474;SDS011;45288;51.136;16.928;2022-09-03T16:31:06;4.88;;;3.78;;
59474;SDS011;45288;51.136;16.928;2022-09-03T16:33:55;5.03;;;3.70;;
59474;SDS011;45288;51.136;16.928;2022-09-03T16:38:56;7.00;;;3.90;;
59474;SDS011;45288;51.136;16.928;2022-09-03T16:47:15;5.20;;;3.78;;
59474;SDS011;45288;51.136;16.928;2022-09-03T16:49:53;5.93;;;4.20;;
59474;SDS011;45288;51.136;16.928;2022-09-03T16:54:55;6.50;;;3.90;;
59474;SDS011;45288;51.136;16.928;2022-09-03T17:00:25;5.07;;;4.00;;
59474;SDS011;45288;51.136;16.928;2022-09-03T17:07:43;6.55;;;4.05;;
59474;SDS011;45288;51.136;16.928;2022-09-03T17:13:23;5.95;;;4.30;;
59474;SDS011;45288;51.136;16.928;2022-09-03T17:21:46;5.90;;;4.25;;
59474;SDS011;45288;51.136;16.928;2022-09-03T17:29:10;5.93;;;4.20;;
59474;SDS011;45288;51.136;16.928;2022-09-03T17:34:29;6.63;;;4.47;;
59474;SDS011;45288;51.136;16.928;2022-09-03T17:37:07;8.00;;;4.30;;
59474;SDS011;45288;51.136;16.928;2022-09-03T17:42:11;7.22;;;4.75;;
59474;SDS011;45288;51.136;16.928;2022-09-03T17:48:24;5.68;;;4.40;;
59474;SDS011;45288;51.136;16.928;2022-09-03T17:50:29;8.57;;;4.38;;
59474;SDS011;45288;51.136;16.928;2022-09-03T17:52:59;8.23;;;4.53;;
59474;SDS011;45288;51.136;16.928;2022-09-03T17:55:28;6.75;;;4.57;;
59474;SDS011;45288;51.136;16.928;2022-09-03T17:58:02;7.82;;;4.50;;
59474;SDS011;45288;51.136;16.928;2022-09-03T18:00:35;7.53;;;4.85;;
59474;SDS011;45288;51.136;16.928;2022-09-03T18:05:47;7.35;;;4.70;;
59474;SDS011;45288;51.136;16.928;2022-09-03T18:15:54;7.43;;;4.90;;
59474;SDS011;45288;51.136;16.928;2022-09-03T18:18:28;7.43;;;4.83;;
59474;SDS011;45288;51.136;16.928;2022-09-03T18:20:58;9.10;;;4.70;;
59474;SDS011;45288;51.136;16.928;2022-09-03T18:26:32;6.95;;;4.95;;
59474;SDS011;45288;51.136;16.928;2022-09-03T18:32:08;6.88;;;4.70;;
59474;SDS011;45288;51.136;16.928;2022-09-03T18:34:53;8.80;;;5.07;;
59474;SDS011;45288;51.136;16.928;2022-09-03T18:37:37;10.43;;;5.37;;
59474;SDS011;45288;51.136;16.928;2022-09-03T18:40:25;8.20;;;5.53;;
59474;SDS011;45288;51.136;16.928;2022-09-03T18:46:07;8.07;;;4.95;;
59474;SDS011;45288;51.136;16.928;2022-09-03T18:54:49;7.82;;;5.50;;
59474;SDS011;45288;51.136;16.928;2022-09-03T18:57:42;9.65;;;5.45;;
59474;SDS011;45288;51.136;16.928;2022-09-03T19:00:29;11.60;;;6.43;;
59474;SDS011;45288;51.136;16.928;2022-09-03T19:11:34;12.23;;;6.45;;
59474;SDS011;45288;51.136;16.928;2022-09-03T19:14:36;10.98;;;6.47;;